Time;durP1;ratioP1;P1;durP2;ratioP2;P2;SDS_P1;SDS_P2;PMS_P1;PMS_P2;Temp;Humidity;BMP_temperature;BMP_pressure;BME280_temperature;BME280_humidity;BME280_pressure;Samples;Min_cycle;Max_cycle;Signal;HPM_P1;HPM_P2
2022/01/09 00:00:29;;;;;;;3.38;2.13;;;4.00;99.90;;;;;;4928743;29;20251;-61
2022/01/09 00:02:58;;;;;;;2.35;2.00;;;4.00;99.90;;;;;;4928267;29;20298;-61
2022/01/09 00:05:28;;;;;;;2.75;1.77;;;4.00;99.90;;;;;;4928657;29;20208;-62
2022/01/09 00:07:56;;;;;;;2.22;1.80;;;4.00;99.90;;;;;;4934421;29;20306;-63
2022/01/09 00:10:26;;;;;;;3.17;1.60;;;4.00;99.90;;;;;;4928760;29;20866;-62
2022/01/09 00:12:55;;;;;;;1.77;1.65;;;4.00;99.90;;;;;;4928269;29;20348;-62
2022/01/09 00:15:23;;;;;;;2.67;2.05;;;4.00;99.90;;;;;;4925183;29;20236;-62
2022/01/09 00:17:50;;;;;;;2.70;1.90;;;4.10;99.90;;;;;;4926615;29;20306;-61
2022/01/09 00:20:19;;;;;;;2.20;1.75;;;4.10;99.90;;;;;;4929036;29;20212;-61
2022/01/09 00:22:50;;;;;;;2.00;1.70;;;4.10;99.90;;;;;;4926790;29;20230;-62
2022/01/09 00:25:20;;;;;;;2.78;1.92;;;4.20;99.90;;;;;;4928637;29;20247;-62
2022/01/09 00:27:49;;;;;;;4.45;1.70;;;4.20;99.90;;;;;;4928308;29;20228;-63
2022/01/09 00:30:19;;;;;;;3.63;2.40;;;4.10;99.90;;;;;;4933087;29;20235;-62
2022/01/09 00:32:47;;;;;;;2.88;2.00;;;4.20;99.90;;;;;;4923524;29;20307;-62
2022/01/09 00:35:16;;;;;;;2.85;1.80;;;4.20;99.90;;;;;;4922492;29;20686;-61
2022/01/09 00:37:44;;;;;;;3.40;1.90;;;4.20;99.90;;;;;;4923023;29;20200;-62
2022/01/09 00:40:15;;;;;;;3.17;1.95;;;4.20;99.90;;;;;;4924951;29;20303;-63
2022/01/09 00:42:44;;;;;;;2.47;1.80;;;4.20;99.90;;;;;;4926184;29;20232;-62
2022/01/09 00:45:13;;;;;;;4.35;2.05;;;4.20;99.90;;;;;;4928666;29;20279;-63
2022/01/09 00:47:41;;;;;;;3.10;2.08;;;4.20;99.90;;;;;;4935081;29;20260;-63
2022/01/09 00:50:11;;;;;;;4.50;2.42;;;4.20;99.90;;;;;;4926290;29;20240;-63
2022/01/09 00:52:39;;;;;;;3.35;2.55;;;4.20;99.90;;;;;;4925281;29;20239;-63
2022/01/09 00:55:08;;;;;;;4.70;2.20;;;4.30;99.90;;;;;;4926987;29;20236;-63
2022/01/09 00:57:38;;;;;;;2.70;2.20;;;4.30;99.90;;;;;;4935661;29;20267;-63
2022/01/09 01:00:07;;;;;;;5.28;2.40;;;4.30;99.90;;;;;;4936625;29;20302;-63
2022/01/09 01:02:35;;;;;;;2.55;2.35;;;4.30;99.90;;;;;;4936186;29;20310;-63
2022/01/09 01:05:04;;;;;;;2.95;2.75;;;4.30;99.90;;;;;;4936561;29;20335;-62
2022/01/09 01:07:32;;;;;;;2.33;2.13;;;4.30;99.90;;;;;;4936544;29;20646;-62
2022/01/09 01:10:00;;;;;;;2.78;1.75;;;4.30;99.90;;;;;;4936900;29;20642;-62
2022/01/09 01:12:29;;;;;;;4.03;2.25;;;4.30;99.90;;;;;;4935864;29;20278;-63
2022/01/09 01:14:59;;;;;;;4.60;2.50;;;4.30;99.90;;;;;;4936245;29;20291;-63
2022/01/09 01:17:27;;;;;;;2.45;2.20;;;4.30;99.90;;;;;;4936351;29;20232;-62
2022/01/09 01:19:55;;;;;;;3.47;2.65;;;4.30;99.90;;;;;;4935902;29;20245;-63
2022/01/09 01:22:29;;;;;;;2.30;2.20;;;4.30;99.90;;;;;;4935397;29;20276;-62
2022/01/09 01:24:57;;;;;;;2.67;2.47;;;4.40;99.90;;;;;;4936068;29;20287;-62
2022/01/09 01:27:26;;;;;;;3.00;2.22;;;4.40;99.90;;;;;;4936014;29;20287;-62
2022/01/09 01:29:54;;;;;;;3.13;2.60;;;4.30;99.90;;;;;;4936043;29;20716;-63
2022/01/09 01:32:23;;;;;;;2.70;2.50;;;4.40;99.90;;;;;;4934179;29;20295;-63
2022/01/09 01:34:52;;;;;;;2.40;2.30;;;4.40;99.90;;;;;;4934738;29;20688;-63
2022/01/09 01:37:20;;;;;;;2.28;2.08;;;4.30;99.90;;;;;;4935754;29;20239;-62
2022/01/09 01:39:48;;;;;;;3.38;2.25;;;4.30;99.90;;;;;;4935807;29;20295;-62
2022/01/09 01:42:16;;;;;;;4.55;2.40;;;4.30;99.90;;;;;;4935292;29;20251;-62
2022/01/09 01:44:46;;;;;;;2.45;2.10;;;4.30;99.90;;;;;;4935756;29;20283;-62
2022/01/09 01:47:15;;;;;;;2.30;2.10;;;4.40;99.90;;;;;;4935487;29;20247;-63
2022/01/09 01:49:45;;;;;;;1.95;1.75;;;4.30;99.90;;;;;;4935409;29;20706;-63
2022/01/09 01:52:15;;;;;;;2.70;2.30;;;4.40;99.90;;;;;;4928610;29;20732;-62
2022/01/09 01:54:44;;;;;;;2.45;2.08;;;4.40;99.90;;;;;;4935600;29;20291;-62
2022/01/09 01:57:14;;;;;;;2.35;2.15;;;4.40;99.90;;;;;;4935538;29;20215;-63
2022/01/09 01:59:41;;;;;;;4.10;2.20;;;4.40;99.90;;;;;;4935525;29;20242;-62
2022/01/09 02:02:09;;;;;;;2.40;2.20;;;4.40;99.90;;;;;;4934728;29;20314;-63
2022/01/09 02:04:38;;;;;;;3.05;2.10;;;4.40;99.90;;;;;;4935294;29;20688;-63
2022/01/09 02:07:08;;;;;;;1.70;1.60;;;4.40;99.90;;;;;;4935324;29;20728;-63
2022/01/09 02:09:36;;;;;;;1.70;1.60;;;4.40;99.90;;;;;;4935452;29;20212;-62
2022/01/09 02:12:06;;;;;;;2.47;1.60;;;4.40;99.90;;;;;;4934585;29;20286;-62
2022/01/09 02:14:36;;;;;;;1.30;1.20;;;4.40;99.90;;;;;;4935241;29;20204;-62
2022/01/09 02:17:05;;;;;;;3.92;1.35;;;4.40;99.90;;;;;;4935163;29;20215;-62
2022/01/09 02:19:33;;;;;;;2.28;1.98;;;4.40;99.90;;;;;;4934838;29;20210;-62
2022/01/09 02:22:02;;;;;;;1.70;1.60;;;4.50;99.90;;;;;;4933942;29;20305;-62
2022/01/09 02:24:30;;;;;;;1.30;1.20;;;4.50;99.90;;;;;;4934814;29;20300;-62
2022/01/09 02:26:58;;;;;;;1.52;1.20;;;4.50;99.90;;;;;;4935049;29;20270;-62
2022/01/09 02:29:26;;;;;;;1.98;1.15;;;4.60;99.90;;;;;;4934809;29;20294;-62
2022/01/09 02:31:55;;;;;;;2.63;1.30;;;4.60;99.90;;;;;;4934657;29;20667;-63
2022/01/09 02:34:23;;;;;;;1.60;1.30;;;4.70;99.90;;;;;;4934838;29;20227;-63
2022/01/09 02:36:50;;;;;;;2.22;1.10;;;4.70;99.90;;;;;;4933658;29;20314;-63
2022/01/09 02:39:20;;;;;;;1.50;1.27;;;4.90;99.90;;;;;;4924802;29;20287;-64
2022/01/09 02:41:47;;;;;;;1.30;1.15;;;4.90;99.90;;;;;;4933964;29;20246;-65
2022/01/09 02:44:16;;;;;;;2.35;1.52;;;5.00;99.90;;;;;;4934608;29;20295;-63
2022/01/09 02:46:55;;;;;;;1.58;1.05;;;5.20;99.90;;;;;;4934767;29;20291;-63
2022/01/09 02:49:25;;;;;;;1.92;0.98;;;5.10;99.90;;;;;;4935942;29;20244;-63
2022/01/09 02:51:53;;;;;;;0.90;0.80;;;5.30;99.90;;;;;;4933986;29;20318;-64
2022/01/09 02:57:05;;;;;;;1.05;0.60;;;5.00;99.90;;;;;;4893188;29;20788;-64
2022/01/09 02:59:33;;;;;;;1.20;0.60;;;5.00;99.90;;;;;;4933907;29;20725;-63
2022/01/09 03:02:01;;;;;;;1.00;0.90;;;5.10;99.90;;;;;;4934193;29;20310;-65
2022/01/09 03:04:29;;;;;;;1.02;0.60;;;5.00;99.90;;;;;;4934319;29;20204;-63
2022/01/09 03:06:57;;;;;;;0.75;0.70;;;5.00;99.90;;;;;;4934429;29;20283;-64
2022/01/09 03:09:26;;;;;;;0.60;0.50;;;5.10;99.90;;;;;;4934491;29;20303;-63
2022/01/09 03:11:54;;;;;;;0.90;0.60;;;5.00;99.90;;;;;;4934151;29;20335;-64
2022/01/09 03:14:22;;;;;;;2.85;0.90;;;5.10;99.90;;;;;;4933890;29;20242;-63
2022/01/09 03:16:49;;;;;;;0.90;0.75;;;5.10;99.90;;;;;;4934243;29;20294;-64
2022/01/09 03:19:17;;;;;;;0.80;0.80;;;5.20;99.90;;;;;;4933959;29;20208;-63
2022/01/09 03:21:45;;;;;;;0.98;0.73;;;5.10;99.90;;;;;;4933653;29;20310;-63
2022/01/09 03:24:13;;;;;;;1.40;0.90;;;5.20;99.90;;;;;;4933483;29;20319;-63
2022/01/09 03:26:43;;;;;;;0.82;0.50;;;5.30;99.90;;;;;;4934267;29;20291;-64
2022/01/09 03:29:10;;;;;;;1.00;0.60;;;5.20;99.90;;;;;;4934150;29;20235;-63
2022/01/09 03:31:38;;;;;;;0.93;0.70;;;5.10;99.90;;;;;;4933990;29;20223;-64
2022/01/09 03:34:06;;;;;;;1.20;0.90;;;5.10;99.90;;;;;;4933692;29;20275;-63
2022/01/09 03:36:34;;;;;;;1.05;0.82;;;5.00;99.90;;;;;;4934274;29;20294;-63
2022/01/09 03:39:02;;;;;;;1.23;0.90;;;4.80;99.90;;;;;;4934031;29;20659;-64
2022/01/09 03:41:30;;;;;;;1.50;1.40;;;4.60;99.90;;;;;;4934074;29;20259;-64
2022/01/09 03:43:59;;;;;;;1.30;1.20;;;4.50;99.90;;;;;;4932729;29;20311;-62
2022/01/09 03:46:27;;;;;;;1.23;1.13;;;4.60;99.90;;;;;;4930644;29;20211;-63
2022/01/09 03:48:55;;;;;;;0.90;0.90;;;4.50;99.90;;;;;;4933868;29;20250;-63
2022/01/09 03:51:25;;;;;;;1.30;1.10;;;4.40;99.90;;;;;;4933434;29;20294;-63
2022/01/09 03:53:53;;;;;;;1.30;1.20;;;4.50;99.90;;;;;;4933617;29;20238;-64
2022/01/09 03:56:20;;;;;;;1.30;1.20;;;4.60;99.90;;;;;;4933997;29;20214;-63
2022/01/09 03:58:48;;;;;;;2.38;1.30;;;4.60;99.90;;;;;;4933705;29;20640;-64
2022/01/09 04:01:17;;;;;;;1.65;1.40;;;4.50;99.90;;;;;;4934034;29;20291;-63
2022/01/09 04:03:45;;;;;;;1.63;1.52;;;4.50;99.90;;;;;;4933336;29;20327;-62
2022/01/09 04:06:13;;;;;;;1.90;1.80;;;4.40;99.90;;;;;;4933958;29;20239;-63
2022/01/09 04:08:41;;;;;;;1.95;1.75;;;4.40;99.90;;;;;;4933804;29;20728;-64
2022/01/09 04:11:10;;;;;;;1.60;1.50;;;4.40;99.90;;;;;;4937135;29;20246;-64
2022/01/09 04:13:38;;;;;;;2.40;2.25;;;4.50;99.90;;;;;;4937111;29;20304;-64
2022/01/09 04:16:06;;;;;;;2.75;2.55;;;4.50;99.90;;;;;;4937608;29;20314;-64
2022/01/09 04:18:35;;;;;;;2.30;2.20;;;4.50;99.90;;;;;;4937551;29;20235;-64
2022/01/09 04:21:03;;;;;;;2.70;2.50;;;4.40;99.90;;;;;;4936918;29;20658;-64
2022/01/09 04:23:31;;;;;;;2.05;1.95;;;4.30;99.90;;;;;;4936589;29;20303;-63
2022/01/09 04:25:59;;;;;;;2.55;2.25;;;4.40;99.90;;;;;;4937181;29;20295;-64
2022/01/09 04:28:27;;;;;;;3.85;1.70;;;4.30;99.90;;;;;;4937335;29;20279;-64
2022/01/09 04:30:55;;;;;;;3.25;2.15;;;4.30;99.90;;;;;;4937234;29;20211;-64
2022/01/09 04:33:23;;;;;;;1.60;1.42;;;4.30;99.90;;;;;;4936850;29;20287;-64
2022/01/09 04:35:54;;;;;;;1.10;0.88;;;4.30;99.90;;;;;;4937018;29;20204;-64
2022/01/09 04:38:22;;;;;;;0.90;0.65;;;4.30;99.90;;;;;;4936954;29;20635;-63
2022/01/09 04:40:50;;;;;;;0.80;0.70;;;4.40;99.90;;;;;;4937008;29;20232;-64
2022/01/09 04:43:18;;;;;;;0.70;0.70;;;4.40;99.90;;;;;;4936491;29;20322;-64
2022/01/09 04:45:46;;;;;;;0.60;0.50;;;4.50;99.90;;;;;;4936717;29;20744;-64
2022/01/09 04:48:15;;;;;;;0.70;0.60;;;4.40;99.90;;;;;;4936928;29;20295;-64
2022/01/09 04:50:45;;;;;;;0.52;0.50;;;4.40;99.90;;;;;;4934169;29;20224;-64
2022/01/09 04:53:14;;;;;;;0.60;0.50;;;4.40;99.90;;;;;;4935807;29;20307;-63
2022/01/09 04:55:45;;;;;;;0.70;0.50;;;4.50;99.90;;;;;;4936692;29;20208;-63
2022/01/09 04:58:13;;;;;;;0.60;0.50;;;4.40;99.90;;;;;;4936768;29;20212;-63
2022/01/09 05:00:41;;;;;;;0.70;0.50;;;4.40;99.90;;;;;;4936671;29;20720;-64
2022/01/09 05:03:09;;;;;;;0.60;0.40;;;4.40;99.90;;;;;;4936151;29;20227;-63
2022/01/09 05:05:38;;;;;;;0.60;0.50;;;4.50;99.90;;;;;;4936530;29;20286;-63
2022/01/09 05:08:06;;;;;;;0.60;0.40;;;4.50;99.90;;;;;;4936491;29;20241;-64
2022/01/09 05:10:35;;;;;;;0.90;0.60;;;4.50;99.90;;;;;;4936486;29;20290;-63
2022/01/09 05:13:03;;;;;;;0.70;0.50;;;4.50;99.90;;;;;;4935804;29;20339;-63
2022/01/09 05:15:31;;;;;;;1.25;0.80;;;4.40;99.90;;;;;;4936409;29;20231;-63
2022/01/09 05:18:01;;;;;;;0.73;0.40;;;4.30;99.90;;;;;;4930033;29;20299;-63
2022/01/09 05:20:29;;;;;;;0.55;0.40;;;4.30;99.90;;;;;;4930922;29;20252;-63
2022/01/09 05:22:57;;;;;;;0.60;0.47;;;4.30;99.90;;;;;;4930669;29;20224;-63
2022/01/09 05:25:25;;;;;;;0.70;0.50;;;4.30;99.90;;;;;;4935819;29;20251;-63
2022/01/09 05:27:54;;;;;;;0.50;0.50;;;4.30;99.90;;;;;;4936098;29;20294;-63
2022/01/09 05:30:22;;;;;;;2.67;0.68;;;4.30;99.90;;;;;;4935999;29;20287;-63
2022/01/09 05:32:50;;;;;;;0.82;0.50;;;4.30;99.90;;;;;;4935547;29;20308;-63
2022/01/09 05:35:18;;;;;;;1.10;0.50;;;4.20;99.90;;;;;;4935907;29;20282;-63
2022/01/09 05:37:46;;;;;;;1.80;0.50;;;4.20;99.90;;;;;;4936165;29;20275;-63
2022/01/09 05:40:14;;;;;;;0.70;0.47;;;4.30;99.90;;;;;;4936006;29;20620;-63
2022/01/09 05:42:42;;;;;;;0.60;0.50;;;4.30;99.90;;;;;;4935647;29;20319;-62
2022/01/09 05:45:11;;;;;;;0.70;0.60;;;4.30;99.90;;;;;;4935612;29;20307;-63
2022/01/09 05:47:39;;;;;;;1.13;0.60;;;4.30;99.90;;;;;;4935794;29;20332;-63
2022/01/09 05:50:08;;;;;;;1.45;0.75;;;4.30;99.90;;;;;;4935245;29;20192;-63
2022/01/09 05:52:36;;;;;;;0.80;0.68;;;4.30;99.90;;;;;;4934984;29;20232;-63
2022/01/09 05:55:05;;;;;;;1.40;0.88;;;4.40;99.90;;;;;;4935286;29;20288;-63
2022/01/09 05:57:33;;;;;;;0.80;0.60;;;4.30;99.90;;;;;;4931062;29;20677;-63
2022/01/09 06:00:01;;;;;;;0.95;0.52;;;4.30;99.90;;;;;;4935398;29;20246;-63
2022/01/09 06:02:30;;;;;;;2.03;1.10;;;4.40;99.90;;;;;;4935121;29;20279;-64
2022/01/09 06:04:58;;;;;;;2.92;0.90;;;4.30;99.90;;;;;;4935415;29;20609;-63
2022/01/09 06:07:26;;;;;;;1.42;0.80;;;4.30;99.90;;;;;;4935493;29;20405;-63
2022/01/09 06:09:54;;;;;;;3.45;1.02;;;4.30;99.90;;;;;;4935289;29;20279;-65
2022/01/09 06:12:22;;;;;;;2.50;1.10;;;4.40;99.90;;;;;;4934791;29;20334;-65
2022/01/09 06:14:51;;;;;;;4.70;1.50;;;4.40;99.90;;;;;;4935047;29;20240;-64
2022/01/09 06:17:19;;;;;;;3.55;1.25;;;4.40;99.90;;;;;;4935033;29;20291;-64
2022/01/09 06:19:48;;;;;;;1.15;1.00;;;4.40;99.90;;;;;;4935081;29;20240;-64
2022/01/09 06:22:18;;;;;;;3.05;1.20;;;4.50;99.90;;;;;;4934013;29;20256;-64
2022/01/09 06:24:47;;;;;;;7.15;1.88;;;4.40;99.90;;;;;;4934790;29;20589;-64
2022/01/09 06:27:15;;;;;;;2.38;1.20;;;4.50;99.90;;;;;;4958189;23;20213;-61
2022/01/09 06:29:43;;;;;;;3.80;1.05;;;4.50;99.90;;;;;;4945318;29;20203;-61
2022/01/09 06:32:11;;;;;;;2.25;1.35;;;4.50;99.90;;;;;;4950323;28;20725;-63
2022/01/09 06:34:40;;;;;;;1.75;1.50;;;4.50;99.90;;;;;;4953060;29;20286;-61
2022/01/09 06:37:10;;;;;;;2.17;1.35;;;4.50;99.90;;;;;;4953906;29;20224;-62
2022/01/09 06:39:38;;;;;;;1.73;1.20;;;4.50;99.90;;;;;;4953866;29;20199;-62
2022/01/09 06:42:06;;;;;;;3.28;1.30;;;4.50;99.90;;;;;;4953644;29;20233;-62
2022/01/09 06:44:34;;;;;;;3.75;1.25;;;4.50;99.90;;;;;;4953550;29;20314;-62
2022/01/09 06:47:03;;;;;;;3.40;1.30;;;4.50;99.90;;;;;;4953762;29;20869;-60
2022/01/09 06:49:31;;;;;;;3.30;1.55;;;4.40;99.90;;;;;;4952746;29;20239;-62
2022/01/09 06:51:59;;;;;;;5.10;1.33;;;4.40;99.90;;;;;;4932910;29;20300;-60
2022/01/09 06:54:28;;;;;;;3.03;1.58;;;4.40;99.90;;;;;;4949861;29;20200;-60
2022/01/09 06:56:56;;;;;;;4.32;1.95;;;4.40;99.90;;;;;;4953385;29;20245;-62
2022/01/09 06:59:24;;;;;;;6.78;2.40;;;4.50;99.90;;;;;;4953624;29;20235;-65
2022/01/09 07:01:52;;;;;;;5.18;2.00;;;4.50;99.90;;;;;;4952014;29;20643;-63
2022/01/09 07:04:19;;;;;;;4.95;2.05;;;4.50;99.90;;;;;;4941711;29;20314;-62
2022/01/09 07:06:47;;;;;;;5.00;1.80;;;4.40;99.90;;;;;;4952270;29;20282;-64
2022/01/09 07:09:15;;;;;;;3.55;1.42;;;4.40;99.90;;;;;;4953381;29;20223;-64
2022/01/09 07:11:44;;;;;;;2.35;1.60;;;4.40;99.90;;;;;;4953296;29;20298;-62
2022/01/09 07:14:14;;;;;;;6.40;2.20;;;4.40;99.90;;;;;;4953066;29;20239;-62
2022/01/09 07:16:41;;;;;;;4.93;2.15;;;4.50;99.90;;;;;;4953356;29;20289;-62
2022/01/09 07:19:09;;;;;;;7.55;2.22;;;4.50;99.90;;;;;;4950613;29;20265;-62
2022/01/09 07:21:37;;;;;;;6.82;1.70;;;4.50;99.90;;;;;;4939615;29;20292;-62
2022/01/09 07:24:05;;;;;;;3.92;1.92;;;4.50;99.90;;;;;;4945680;29;20290;-62
2022/01/09 07:26:33;;;;;;;10.30;2.38;;;4.60;99.90;;;;;;4953423;29;20199;-63
2022/01/09 07:29:03;;;;;;;3.85;2.53;;;4.50;99.90;;;;;;4953055;29;20322;-61
2022/01/09 07:31:30;;;;;;;7.20;2.38;;;4.50;99.90;;;;;;4922313;29;20204;-61
2022/01/09 07:33:58;;;;;;;5.20;2.42;;;4.50;99.90;;;;;;4928617;29;20244;-62
2022/01/09 07:36:26;;;;;;;8.10;2.40;;;4.60;99.90;;;;;;4926795;29;20207;-62
2022/01/09 07:38:54;;;;;;;6.97;2.25;;;4.60;99.90;;;;;;4932262;29;20227;-63
2022/01/09 07:41:25;;;;;;;5.97;2.30;;;4.50;99.90;;;;;;4924061;29;20632;-62
2022/01/09 07:43:52;;;;;;;7.55;2.40;;;4.60;99.90;;;;;;4923463;29;20211;-62
2022/01/09 07:46:22;;;;;;;7.82;2.72;;;4.60;99.90;;;;;;4926477;29;20710;-62
2022/01/09 07:48:50;;;;;;;8.50;3.20;;;4.60;99.90;;;;;;4930558;29;20315;-61
2022/01/09 07:51:18;;;;;;;5.97;2.38;;;4.70;99.90;;;;;;4926206;29;20291;-62
2022/01/09 07:53:45;;;;;;;4.55;2.17;;;4.70;99.90;;;;;;4924440;29;20733;-60
2022/01/09 07:56:14;;;;;;;7.53;2.42;;;4.70;99.90;;;;;;4925555;29;20231;-62
2022/01/09 07:58:42;;;;;;;5.45;2.97;;;4.70;99.90;;;;;;4933970;29;20224;-64
2022/01/09 08:01:10;;;;;;;9.50;3.63;;;4.70;99.90;;;;;;4942090;29;20290;-63
2022/01/09 08:03:39;;;;;;;8.13;3.00;;;5.20;99.90;;;;;;4932742;29;20238;-63
2022/01/09 08:06:07;;;;;;;10.15;2.70;;;6.00;99.90;;;;;;4934371;29;20235;-63
2022/01/09 08:08:35;;;;;;;7.45;2.20;;;6.30;99.90;;;;;;4937994;29;20220;-62
2022/01/09 08:11:03;;;;;;;8.60;4.43;;;7.00;99.90;;;;;;4941957;29;20900;-63
2022/01/09 08:13:31;;;;;;;7.32;2.50;;;7.20;99.90;;;;;;4946293;29;20290;-64
2022/01/09 08:15:59;;;;;;;11.20;2.53;;;7.60;99.90;;;;;;4949659;29;20412;-63
2022/01/09 08:18:27;;;;;;;5.43;2.47;;;7.80;99.90;;;;;;4943793;29;20846;-63
2022/01/09 08:20:56;;;;;;;7.95;2.53;;;7.90;99.90;;;;;;4935953;29;20255;-63
2022/01/09 08:23:24;;;;;;;5.07;2.53;;;7.80;99.90;;;;;;4946181;29;20294;-63
2022/01/09 08:25:52;;;;;;;5.80;2.60;;;7.80;99.90;;;;;;4950611;29;20263;-63
2022/01/09 08:28:20;;;;;;;8.45;2.40;;;8.20;99.90;;;;;;4946084;29;20247;-63
2022/01/09 08:30:47;;;;;;;7.45;2.53;;;7.90;99.90;;;;;;4946418;29;20700;-63
2022/01/09 08:33:15;;;;;;;8.82;3.55;;;8.10;99.90;;;;;;4937002;29;20295;-64
2022/01/09 08:35:43;;;;;;;6.70;2.80;;;8.70;99.90;;;;;;4942993;29;20422;-63
2022/01/09 08:38:12;;;;;;;6.60;3.15;;;8.80;99.90;;;;;;4944021;29;20313;-63
2022/01/09 08:40:40;;;;;;;5.65;1.88;;;8.80;99.90;;;;;;4942791;29;20974;-62
2022/01/09 08:43:08;;;;;;;9.93;3.50;;;8.00;99.90;;;;;;4943830;29;20291;-64
2022/01/09 08:45:36;;;;;;;8.95;2.95;;;7.10;99.90;;;;;;4946335;29;20315;-63
2022/01/09 08:48:04;;;;;;;9.05;3.63;;;6.60;99.90;;;;;;4949316;29;20644;-64
2022/01/09 08:50:32;;;;;;;8.63;3.38;;;6.00;99.90;;;;;;4927450;29;20628;-62
2022/01/09 08:53:00;;;;;;;5.88;2.83;;;5.60;99.90;;;;;;4924027;29;20694;-63
2022/01/09 08:55:29;;;;;;;8.77;2.63;;;5.40;99.90;;;;;;4946965;28;20286;-63
2022/01/09 08:57:57;;;;;;;6.10;2.58;;;5.20;99.90;;;;;;4943487;29;20286;-63
2022/01/09 09:00:25;;;;;;;7.43;3.53;;;5.20;99.90;;;;;;4939650;29;20208;-64
2022/01/09 09:02:53;;;;;;;6.95;3.13;;;5.00;99.90;;;;;;4935510;29;20308;-64
2022/01/09 09:05:21;;;;;;;5.40;2.63;;;5.10;99.90;;;;;;4948420;29;20254;-63
2022/01/09 09:07:49;;;;;;;4.72;2.60;;;5.10;99.90;;;;;;4945081;29;20250;-63
2022/01/09 09:10:17;;;;;;;5.63;2.05;;;5.00;99.90;;;;;;4946322;29;20282;-63
2022/01/09 09:12:47;;;;;;;4.68;2.13;;;4.90;99.90;;;;;;4943105;29;20303;-64
2022/01/09 09:15:14;;;;;;;6.45;2.70;;;4.80;99.90;;;;;;4941240;29;20242;-63
2022/01/09 09:17:42;;;;;;;5.18;2.45;;;4.80;99.90;;;;;;4946071;29;20263;-64
2022/01/09 09:20:11;;;;;;;8.65;2.17;;;4.80;99.90;;;;;;4933919;29;20581;-63
2022/01/09 09:22:39;;;;;;;6.70;2.70;;;4.80;99.90;;;;;;4938910;29;20298;-63
2022/01/09 09:25:08;;;;;;;6.90;3.10;;;4.80;99.90;;;;;;4944600;29;20991;-63
2022/01/09 09:27:36;;;;;;;7.38;3.45;;;4.90;99.90;;;;;;4945253;29;20236;-64
2022/01/09 09:30:07;;;;;;;5.88;2.17;;;4.90;99.90;;;;;;4936928;29;20213;-64
2022/01/09 09:32:35;;;;;;;6.20;3.22;;;4.90;99.90;;;;;;4943994;29;20209;-63
2022/01/09 09:35:04;;;;;;;4.95;2.97;;;4.90;99.90;;;;;;4945637;29;20716;-64
2022/01/09 09:37:32;;;;;;;9.90;2.70;;;4.90;99.90;;;;;;4948685;29;20310;-63
2022/01/09 09:40:00;;;;;;;7.70;3.63;;;5.00;99.90;;;;;;4944925;29;20840;-64
2022/01/09 09:42:28;;;;;;;4.88;2.78;;;5.10;99.90;;;;;;4944339;29;20652;-64
2022/01/09 09:45:00;;;;;;;6.10;3.15;;;5.10;99.90;;;;;;4940953;29;20235;-63
2022/01/09 09:47:30;;;;;;;7.50;2.60;;;5.20;99.90;;;;;;4947925;29;20605;-63
2022/01/09 09:49:58;;;;;;;11.32;3.22;;;5.30;99.90;;;;;;4936765;29;20219;-63
2022/01/09 09:52:26;;;;;;;7.25;2.83;;;5.30;99.90;;;;;;4937626;29;20256;-63
2022/01/09 09:54:55;;;;;;;9.25;3.15;;;5.30;99.90;;;;;;4946558;29;20203;-63
2022/01/09 09:57:23;;;;;;;6.95;3.15;;;5.40;99.90;;;;;;4941590;29;20338;-64
2022/01/09 10:00:00;;;;;;;8.02;3.97;;;5.40;99.90;;;;;;4943317;29;20862;-64
2022/01/09 10:02:45;;;;;;;7.93;4.10;;;5.40;99.90;;;;;;4939730;29;20203;-63
2022/01/09 10:05:15;;;;;;;8.82;4.10;;;5.50;99.90;;;;;;4940937;29;20215;-63
2022/01/09 10:07:43;;;;;;;5.38;3.15;;;5.60;99.90;;;;;;4945049;28;20227;-64
2022/01/09 10:10:14;;;;;;;7.43;2.60;;;5.70;99.90;;;;;;4947017;29;20222;-63
2022/01/09 10:12:44;;;;;;;4.88;2.28;;;5.80;99.90;;;;;;4944303;29;20204;-63
2022/01/09 10:15:14;;;;;;;4.85;2.22;;;5.90;99.90;;;;;;4942124;29;20209;-63
2022/01/09 10:17:45;;;;;;;4.38;1.90;;;6.10;99.90;;;;;;4943875;29;20231;-63
2022/01/09 10:20:20;;;;;;;4.95;2.05;;;6.30;99.90;;;;;;4935437;29;20208;-63
2022/01/09 10:22:50;;;;;;;4.85;1.75;;;6.60;99.90;;;;;;4927957;29;20235;-64
2022/01/09 10:25:31;;;;;;;3.95;1.90;;;7.00;99.90;;;;;;4942526;29;20217;-64
2022/01/09 10:28:05;;;;;;;6.07;2.60;;;7.30;99.90;;;;;;4947299;29;20326;-63
2022/01/09 10:30:35;;;;;;;3.40;1.55;;;7.20;99.90;;;;;;4942022;29;20210;-64
2022/01/09 10:33:07;;;;;;;4.78;1.60;;;7.10;99.90;;;;;;4942903;29;20673;-63
2022/01/09 10:35:37;;;;;;;5.15;1.60;;;7.10;99.90;;;;;;4945575;29;20208;-64
2022/01/09 10:38:16;;;;;;;7.65;1.67;;;7.10;99.90;;;;;;4948848;29;20326;-64
2022/01/09 10:40:49;;;;;;;4.63;1.60;;;7.10;99.90;;;;;;4946023;29;20282;-64
2022/01/09 10:43:18;;;;;;;2.35;1.30;;;6.90;99.90;;;;;;4943905;29;20231;-64
2022/01/09 10:45:49;;;;;;;2.95;1.50;;;6.70;99.90;;;;;;4940706;29;20203;-63
2022/01/09 10:48:21;;;;;;;3.90;1.50;;;6.60;99.90;;;;;;4941190;29;20314;-64
2022/01/09 10:50:50;;;;;;;4.32;1.98;;;6.40;99.90;;;;;;4934750;29;20963;-64
2022/01/09 10:53:27;;;;;;;5.13;1.67;;;6.30;99.90;;;;;;4932674;29;20768;-64
2022/01/09 10:56:18;;;;;;;7.32;2.17;;;6.40;99.90;;;;;;4948171;29;20235;-64
2022/01/09 10:58:47;;;;;;;3.45;1.60;;;6.30;99.90;;;;;;4940897;29;20355;-63
2022/01/09 11:01:20;;;;;;;10.70;2.92;;;6.30;99.90;;;;;;4943679;29;20306;-63
2022/01/09 11:03:51;;;;;;;8.68;3.20;;;6.20;99.90;;;;;;4946135;29;20227;-64
2022/01/09 11:06:20;;;;;;;9.80;4.15;;;6.20;99.90;;;;;;4940540;29;20215;-63
2022/01/09 11:08:49;;;;;;;11.80;4.30;;;6.10;99.90;;;;;;4947827;29;20837;-63
2022/01/09 11:11:24;;;;;;;6.68;4.25;;;6.00;99.90;;;;;;4944816;29;20291;-63
2022/01/09 11:13:54;;;;;;;8.57;3.90;;;6.00;99.90;;;;;;4937478;29;20215;-64
2022/01/09 11:16:33;;;;;;;6.07;2.83;;;6.00;99.90;;;;;;4941319;29;20208;-63
2022/01/09 11:19:08;;;;;;;6.25;2.78;;;6.00;99.90;;;;;;4935221;29;20253;-64
2022/01/09 11:21:37;;;;;;;6.97;3.00;;;5.90;99.90;;;;;;4927391;29;20210;-63
2022/01/09 11:24:39;;;;;;;7.78;2.55;;;5.90;99.90;;;;;;4928879;29;20212;-65
2022/01/09 11:27:18;;;;;;;6.53;2.63;;;5.90;99.90;;;;;;4923435;29;20220;-63
2022/01/09 11:29:58;;;;;;;7.60;3.90;;;5.90;99.90;;;;;;4939712;29;20211;-64
2022/01/09 11:32:37;;;;;;;7.20;2.90;;;5.90;99.90;;;;;;4941363;29;20493;-63
2022/01/09 11:35:15;;;;;;;8.20;1.60;;;6.00;99.90;;;;;;4942547;29;20222;-63
2022/01/09 11:37:56;;;;;;;4.65;2.10;;;6.00;99.90;;;;;;4945402;29;20231;-63
2022/01/09 11:40:26;;;;;;;6.13;2.95;;;6.10;99.90;;;;;;4939284;29;20703;-63
2022/01/09 11:43:05;;;;;;;4.40;1.80;;;6.30;99.90;;;;;;4946605;29;20203;-64
2022/01/09 11:45:45;;;;;;;6.65;2.42;;;6.50;99.90;;;;;;4928875;29;20749;-64
2022/01/09 11:48:15;;;;;;;4.43;2.20;;;6.80;99.90;;;;;;4940866;29;20233;-64
2022/01/09 11:51:13;;;;;;;3.72;1.73;;;6.90;99.90;;;;;;4942865;29;20210;-63
2022/01/09 11:54:08;;;;;;;2.50;1.73;;;7.20;99.90;;;;;;4939365;29;20585;-63
2022/01/09 11:56:56;;;;;;;3.55;1.50;;;7.60;99.90;;;;;;4923472;29;20580;-64
2022/01/09 11:59:51;;;;;;;4.32;1.75;;;8.00;99.90;;;;;;4944277;29;20206;-64
2022/01/09 12:02:32;;;;;;;3.25;1.58;;;8.10;99.90;;;;;;4944774;29;20206;-63
2022/01/09 12:05:02;;;;;;;3.80;1.33;;;8.30;99.90;;;;;;4945672;29;20222;-64
2022/01/09 12:08:02;;;;;;;9.10;1.52;;;8.40;99.90;;;;;;4942358;29;20234;-64
2022/01/09 12:10:35;;;;;;;4.80;1.75;;;8.70;99.90;;;;;;4941134;29;20203;-63
2022/01/09 12:13:05;;;;;;;5.18;3.25;;;8.70;99.90;;;;;;4932881;29;20713;-64
2022/01/09 12:15:42;;;;;;;3.08;1.67;;;8.60;99.90;;;;;;4942485;29;20211;-64
2022/01/09 12:18:43;;;;;;;2.67;1.63;;;8.30;99.90;;;;;;4942740;29;20219;-64
2022/01/09 12:21:32;;;;;;;4.28;1.65;;;8.10;99.90;;;;;;4931843;29;20202;-64
2022/01/09 12:24:33;;;;;;;4.07;2.17;;;7.80;99.90;;;;;;4939082;29;20739;-64
2022/01/09 12:27:42;;;;;;;5.55;2.60;;;7.60;99.90;;;;;;4931780;29;21161;-64
2022/01/09 12:30:11;;;;;;;5.85;2.53;;;7.40;99.90;;;;;;4935959;28;20211;-64
2022/01/09 12:32:43;;;;;;;4.60;1.60;;;7.10;99.90;;;;;;4941467;29;20235;-63
2022/01/09 12:35:19;;;;;;;5.25;1.45;;;7.10;99.90;;;;;;4944668;29;20210;-64
2022/01/09 12:37:48;;;;;;;4.43;2.05;;;7.10;99.90;;;;;;4948779;29;20608;-63
2022/01/09 12:40:17;;;;;;;4.47;1.95;;;7.10;99.90;;;;;;4940113;29;20286;-65
2022/01/09 12:42:50;;;;;;;1.95;1.15;;;6.90;99.90;;;;;;4940983;29;20207;-63
2022/01/09 12:45:20;;;;;;;3.08;1.60;;;6.90;99.90;;;;;;4936734;29;20227;-63
2022/01/09 12:47:48;;;;;;;3.17;1.30;;;6.90;99.90;;;;;;4950601;29;20223;-63
2022/01/09 12:50:17;;;;;;;14.82;2.47;;;6.80;99.90;;;;;;4946110;29;20303;-63
2022/01/09 12:52:45;;;;;;;7.03;3.80;;;6.80;99.90;;;;;;4946000;29;20204;-64
2022/01/09 12:55:13;;;;;;;4.35;1.80;;;6.80;99.90;;;;;;4933201;29;20295;-64
2022/01/09 12:58:03;;;;;;;3.63;1.60;;;6.90;99.90;;;;;;4940786;29;20230;-63
2022/01/09 13:00:31;;;;;;;12.90;2.30;;;6.90;99.90;;;;;;4944693;29;20290;-63
2022/01/09 13:02:59;;;;;;;5.85;2.05;;;6.90;99.90;;;;;;4944774;29;20205;-63
2022/01/09 13:05:28;;;;;;;3.92;1.40;;;6.80;99.90;;;;;;4945095;29;20196;-64
2022/01/09 13:07:58;;;;;;;5.55;1.92;;;6.70;99.90;;;;;;4931499;29;20269;-63
2022/01/09 13:10:30;;;;;;;5.72;1.90;;;6.70;99.90;;;;;;4942285;29;20865;-63
2022/01/09 13:13:03;;;;;;;6.75;1.60;;;6.60;99.90;;;;;;4946782;29;20299;-64
2022/01/09 13:15:32;;;;;;;3.33;1.80;;;6.70;99.90;;;;;;4944647;29;20231;-63